CheckWX is a tool to help pilots better visualize weather data.  It is not intended as a substitute for an official pre-flight weather briefing.

19:26:46 UTC

ESPE METAR
Vidsel Air Base Airport
Vidsel, Sweden
Current

37 mins ago

ESPE 261850Z AUTO 34004KT 9999 FEW052/// 08/04 Q0996
Observed
May-26 @ 18:50 UTC
Wind
  • 340° at 4 KTS
Visibility
10,000+ meters
Flight Rules
VFR
Cloud Levels
  • Few at 5,200' AGL
Temperature
C / 46°F
Dewpoint
C / 39°F
Humidity
76%
Altimeter
29.41" Hg
Pressure
995.92 hPa
Previous

1 hour ago

ESPE 261820Z AUTO 33003KT 290V010 9999 BKN052/// OVC066/// 10/03 Q0996
Observed
May-26 @ 18:20 UTC
Wind
  • 330° at 3 KTS
Visibility
10,000+ meters
Flight Rules
VFR
Cloud Levels
  • Broken at 5,200' AGL
  • Overcast at 6,600' AGL
Temperature
10°C / 50°F
Dewpoint
C / 37°F
Humidity
62%
Altimeter
29.41" Hg
Pressure
995.92 hPa
Previous

2 hours ago

ESPE 261750Z AUTO VRB01KT 9999 OVC074/// 10/04 Q0996
Observed
May-26 @ 17:50 UTC
Wind
  • Variable at 1 KTS
Visibility
10,000+ meters
Flight Rules
VFR
Cloud Levels
  • Overcast at 7,400' AGL
Temperature
10°C / 50°F
Dewpoint
C / 39°F
Humidity
67%
Altimeter
29.41" Hg
Pressure
995.92 hPa